sensor_id;sensor_type;location;lat;lon;timestamp;temperature;humidity
15152;DHT22;7676;50.900;6.234;2023-05-07T00:04:26;16.40;99.90
15152;DHT22;7676;50.900;6.234;2023-05-07T00:19:44;16.40;99.90
15152;DHT22;7676;50.900;6.234;2023-05-07T00:35:01;17.00;99.90
15152;DHT22;7676;50.900;6.234;2023-05-07T00:50:08;17.10;99.90
15152;DHT22;7676;50.900;6.234;2023-05-07T01:05:15;17.10;99.90
15152;DHT22;7676;50.900;6.234;2023-05-07T01:20:23;16.50;99.90
15152;DHT22;7676;50.900;6.234;2023-05-07T01:35:34;16.70;99.90
15152;DHT22;7676;50.900;6.234;2023-05-07T01:50:52;16.70;99.90
15152;DHT22;7676;50.900;6.234;2023-05-07T02:06:09;16.50;99.90
15152;DHT22;7676;50.900;6.234;2023-05-07T02:21:14;16.20;99.90
15152;DHT22;7676;50.900;6.234;2023-05-07T02:36:20;16.30;99.90
15152;DHT22;7676;50.900;6.234;2023-05-07T02:51:35;16.40;99.90
15152;DHT22;7676;50.900;6.234;2023-05-07T03:06:46;16.50;99.90
15152;DHT22;7676;50.900;6.234;2023-05-07T03:22:03;16.60;99.90
15152;DHT22;7676;50.900;6.234;2023-05-07T03:37:06;16.60;99.90
15152;DHT22;7676;50.900;6.234;2023-05-07T03:52:22;14.80;99.90
15152;DHT22;7676;50.900;6.234;2023-05-07T04:07:34;16.10;99.90
15152;DHT22;7676;50.900;6.234;2023-05-07T04:22:37;15.90;99.90
15152;DHT22;7676;50.900;6.234;2023-05-07T04:37:44;15.30;99.90
15152;DHT22;7676;50.900;6.234;2023-05-07T04:52:52;14.80;99.90
15152;DHT22;7676;50.900;6.234;2023-05-07T05:07:59;15.10;99.90
15152;DHT22;7676;50.900;6.234;2023-05-07T05:23:02;15.10;99.90
15152;DHT22;7676;50.900;6.234;2023-05-07T05:38:09;15.70;99.90
15152;DHT22;7676;50.900;6.234;2023-05-07T05:53:17;16.20;99.90
15152;DHT22;7676;50.900;6.234;2023-05-07T06:08:23;16.40;99.90
15152;DHT22;7676;50.900;6.234;2023-05-07T06:23:39;16.20;99.90
15152;DHT22;7676;50.900;6.234;2023-05-07T06:38:44;16.40;99.90
15152;DHT22;7676;50.900;6.234;2023-05-07T06:53:55;16.30;99.90
15152;DHT22;7676;50.900;6.234;2023-05-07T07:09:00;16.50;99.90
15152;DHT22;7676;50.900;6.234;2023-05-07T07:24:07;17.00;99.90
15152;DHT22;7676;50.900;6.234;2023-05-07T07:39:10;17.00;99.90
15152;DHT22;7676;50.900;6.234;2023-05-07T07:54:14;17.50;99.90
15152;DHT22;7676;50.900;6.234;2023-05-07T08:09:18;17.70;99.90
15152;DHT22;7676;50.900;6.234;2023-05-07T08:24:23;17.80;99.90
15152;DHT22;7676;50.900;6.234;2023-05-07T08:39:30;18.20;99.90
15152;DHT22;7676;50.900;6.234;2023-05-07T08:54:34;18.50;99.90
15152;DHT22;7676;50.900;6.234;2023-05-07T09:09:40;19.30;99.90
15152;DHT22;7676;50.900;6.234;2023-05-07T09:24:51;19.90;99.90
15152;DHT22;7676;50.900;6.234;2023-05-07T09:39:58;20.40;99.90
15152;DHT22;7676;50.900;6.234;2023-05-07T09:55:17;20.70;99.90
15152;DHT22;7676;50.900;6.234;2023-05-07T10:10:23;19.40;99.90
15152;DHT22;7676;50.900;6.234;2023-05-07T10:25:31;21.80;99.90
15152;DHT22;7676;50.900;6.234;2023-05-07T10:40:44;21.80;99.90
15152;DHT22;7676;50.900;6.234;2023-05-07T10:56:23;21.50;99.90
15152;DHT22;7676;50.900;6.234;2023-05-07T11:11:49;21.40;99.90
15152;DHT22;7676;50.900;6.234;2023-05-07T11:27:09;22.00;99.90
15152;DHT22;7676;50.900;6.234;2023-05-07T11:42:28;22.80;99.90
15152;DHT22;7676;50.900;6.234;2023-05-07T11:57:35;22.80;99.90
15152;DHT22;7676;50.900;6.234;2023-05-07T12:12:52;22.70;99.90
15152;DHT22;7676;50.900;6.234;2023-05-07T12:27:55;22.90;99.90
15152;DHT22;7676;50.900;6.234;2023-05-07T12:43:03;23.10;99.90
15152;DHT22;7676;50.900;6.234;2023-05-07T12:58:24;22.70;99.90
15152;DHT22;7676;50.900;6.234;2023-05-07T13:13:27;22.40;99.90
15152;DHT22;7676;50.900;6.234;2023-05-07T13:28:33;21.30;99.90
15152;DHT22;7676;50.900;6.234;2023-05-07T13:43:36;20.00;99.90
15152;DHT22;7676;50.900;6.234;2023-05-07T13:58:40;19.80;99.90
15152;DHT22;7676;50.900;6.234;2023-05-07T14:13:58;19.50;99.90
15152;DHT22;7676;50.900;6.234;2023-05-07T14:29:02;19.20;99.90
15152;DHT22;7676;50.900;6.234;2023-05-07T14:44:08;19.50;99.90
15152;DHT22;7676;50.900;6.234;2023-05-07T14:59:14;20.10;99.90
15152;DHT22;7676;50.900;6.234;2023-05-07T15:14:34;20.00;99.90
15152;DHT22;7676;50.900;6.234;2023-05-07T15:29:37;20.40;99.90
15152;DHT22;7676;50.900;6.234;2023-05-07T15:44:40;20.10;99.90
15152;DHT22;7676;50.900;6.234;2023-05-07T15:59:58;20.10;99.90
15152;DHT22;7676;50.900;6.234;2023-05-07T16:15:02;20.20;99.90
15152;DHT22;7676;50.900;6.234;2023-05-07T16:30:25;19.80;99.90
15152;DHT22;7676;50.900;6.234;2023-05-07T16:45:28;20.00;99.90
15152;DHT22;7676;50.900;6.234;2023-05-07T17:00:35;20.00;99.90
15152;DHT22;7676;50.900;6.234;2023-05-07T17:16:06;19.90;99.90
15152;DHT22;7676;50.900;6.234;2023-05-07T17:31:24;19.50;99.90
15152;DHT22;7676;50.900;6.234;2023-05-07T17:46:42;19.90;99.90
15152;DHT22;7676;50.900;6.234;2023-05-07T18:01:48;19.80;99.90
15152;DHT22;7676;50.900;6.234;2023-05-07T18:16:55;19.80;99.90
15152;DHT22;7676;50.900;6.234;2023-05-07T18:32:01;19.60;99.90
15152;DHT22;7676;50.900;6.234;2023-05-07T18:47:05;19.60;99.90
15152;DHT22;7676;50.900;6.234;2023-05-07T19:02:08;19.80;99.90
15152;DHT22;7676;50.900;6.234;2023-05-07T19:17:12;19.90;99.90
15152;DHT22;7676;50.900;6.234;2023-05-07T19:32:15;20.10;99.90
15152;DHT22;7676;50.900;6.234;2023-05-07T19:47:26;20.40;99.90
15152;DHT22;7676;50.900;6.234;2023-05-07T20:02:33;20.40;99.90
15152;DHT22;7676;50.900;6.234;2023-05-07T20:17:50;20.40;99.90
15152;DHT22;7676;50.900;6.234;2023-05-07T20:32:52;20.30;99.90
15152;DHT22;7676;50.900;6.234;2023-05-07T20:48:10;20.20;99.90
15152;DHT22;7676;50.900;6.234;2023-05-07T21:03:17;20.30;99.90
15152;DHT22;7676;50.900;6.234;2023-05-07T21:18:34;20.10;99.90
15152;DHT22;7676;50.900;6.234;2023-05-07T21:33:51;20.20;99.90
15152;DHT22;7676;50.900;6.234;2023-05-07T21:49:08;20.20;99.90
15152;DHT22;7676;50.900;6.234;2023-05-07T22:04:25;20.20;99.90
15152;DHT22;7676;50.900;6.234;2023-05-07T22:19:36;20.00;99.90
15152;DHT22;7676;50.900;6.234;2023-05-07T22:34:58;19.70;99.90
15152;DHT22;7676;50.900;6.234;2023-05-07T22:50:19;19.90;99.90
15152;DHT22;7676;50.900;6.234;2023-05-07T23:05:22;19.90;99.90
15152;DHT22;7676;50.900;6.234;2023-05-07T23:20:39;19.80;99.90
15152;DHT22;7676;50.900;6.234;2023-05-07T23:35:42;19.60;99.90
15152;DHT22;7676;50.900;6.234;2023-05-07T23:50:45;19.40;99.90
